sensor_id;sensor_type;location;lat;lon;timestamp;temperature;humidity
51305;HTU21D;37392;50.964;6.952;2023-03-01T00:01:08;-1.06;90.69
51305;HTU21D;37392;50.964;6.952;2023-03-01T00:03:35;-1.17;91.17
51305;HTU21D;37392;50.964;6.952;2023-03-01T00:06:02;-1.16;91.60
51305;HTU21D;37392;50.964;6.952;2023-03-01T00:08:28;-1.05;91.47
51305;HTU21D;37392;50.964;6.952;2023-03-01T00:11:16;-0.93;91.18
51305;HTU21D;37392;50.964;6.952;2023-03-01T00:13:48;-0.86;90.54
51305;HTU21D;37392;50.964;6.952;2023-03-01T00:16:26;-0.94;90.43
51305;HTU21D;37392;50.964;6.952;2023-03-01T00:18:54;-0.84;90.44
51305;HTU21D;37392;50.964;6.952;2023-03-01T00:21:21;-0.97;90.01
51305;HTU21D;37392;50.964;6.952;2023-03-01T00:23:47;-1.16;90.49
51305;HTU21D;37392;50.964;6.952;2023-03-01T00:26:14;-1.26;91.25
51305;HTU21D;37392;50.964;6.952;2023-03-01T00:28:41;-1.14;91.47
51305;HTU21D;37392;50.964;6.952;2023-03-01T00:31:13;-1.16;90.94
51305;HTU21D;37392;50.964;6.952;2023-03-01T00:33:43;-1.25;91.31
51305;HTU21D;37392;50.964;6.952;2023-03-01T00:36:10;-1.29;91.45
51305;HTU21D;37392;50.964;6.952;2023-03-01T00:38:38;-1.34;91.60
51305;HTU21D;37392;50.964;6.952;2023-03-01T00:41:15;-1.31;91.66
51305;HTU21D;37392;50.964;6.952;2023-03-01T00:43:42;-1.32;91.85
51305;HTU21D;37392;50.964;6.952;2023-03-01T00:46:20;-1.34;91.53
51305;HTU21D;37392;50.964;6.952;2023-03-01T00:48:51;-1.25;91.31
51305;HTU21D;37392;50.964;6.952;2023-03-01T00:51:19;-1.44;91.47
51305;HTU21D;37392;50.964;6.952;2023-03-01T00:53:54;-1.27;92.18
51305;HTU21D;37392;50.964;6.952;2023-03-01T00:56:22;-1.19;91.63
51305;HTU21D;37392;50.964;6.952;2023-03-01T00:58:47;-1.06;91.02
51305;HTU21D;37392;50.964;6.952;2023-03-01T01:01:19;-1.24;90.73
51305;HTU21D;37392;50.964;6.952;2023-03-01T01:03:59;-1.29;91.34
51305;HTU21D;37392;50.964;6.952;2023-03-01T01:06:40;-1.21;91.35
51305;HTU21D;37392;50.964;6.952;2023-03-01T01:09:10;-1.26;90.99
51305;HTU21D;37392;50.964;6.952;2023-03-01T01:11:44;-1.39;91.09
51305;HTU21D;37392;50.964;6.952;2023-03-01T01:14:15;-1.54;91.43
51305;HTU21D;37392;50.964;6.952;2023-03-01T01:16:41;-1.65;91.97
51305;HTU21D;37392;50.964;6.952;2023-03-01T01:19:09;-1.76;92.14
51305;HTU21D;37392;50.964;6.952;2023-03-01T01:21:35;-1.90;92.36
51305;HTU21D;37392;50.964;6.952;2023-03-01T01:24:03;-1.75;93.05
51305;HTU21D;37392;50.964;6.952;2023-03-01T01:26:31;-1.61;92.42
51305;HTU21D;37392;50.964;6.952;2023-03-01T01:28:59;-1.68;92.37
51305;HTU21D;37392;50.964;6.952;2023-03-01T01:31:27;-1.57;92.44
51305;HTU21D;37392;50.964;6.952;2023-03-01T01:33:54;-1.56;91.79
51305;HTU21D;37392;50.964;6.952;2023-03-01T01:36:20;-1.29;91.76
51305;HTU21D;37392;50.964;6.952;2023-03-01T01:38:46;-1.30;91.10
51305;HTU21D;37392;50.964;6.952;2023-03-01T01:41:13;-1.14;90.69
51305;HTU21D;37392;50.964;6.952;2023-03-01T01:43:44;-1.24;90.34
51305;HTU21D;37392;50.964;6.952;2023-03-01T01:46:29;-1.14;90.47
51305;HTU21D;37392;50.964;6.952;2023-03-01T01:49:06;-1.21;90.42
51305;HTU21D;37392;50.964;6.952;2023-03-01T01:51:38;-1.31;90.61
51305;HTU21D;37392;50.964;6.952;2023-03-01T01:54:17;-1.47;90.96
51305;HTU21D;37392;50.964;6.952;2023-03-01T01:56:55;-1.72;91.15
51305;HTU21D;37392;50.964;6.952;2023-03-01T01:59:26;-1.83;92.06
51305;HTU21D;37392;50.964;6.952;2023-03-01T02:01:52;-1.82;92.41
51305;HTU21D;37392;50.964;6.952;2023-03-01T02:04:19;-1.90;92.53
51305;HTU21D;37392;50.964;6.952;2023-03-01T02:06:51;-1.94;92.56
51305;HTU21D;37392;50.964;6.952;2023-03-01T02:09:23;-1.70;92.57
51305;HTU21D;37392;50.964;6.952;2023-03-01T02:11:50;-1.59;92.53
51305;HTU21D;37392;50.964;6.952;2023-03-01T02:14:16;-1.53;92.13
51305;HTU21D;37392;50.964;6.952;2023-03-01T02:16:42;-1.50;91.85
51305;HTU21D;37392;50.964;6.952;2023-03-01T02:19:15;-1.60;91.73
51305;HTU21D;37392;50.964;6.952;2023-03-01T02:21:55;-1.68;91.89
51305;HTU21D;37392;50.964;6.952;2023-03-01T02:24:50;-1.88;92.23
51305;HTU21D;37392;50.964;6.952;2023-03-01T02:27:26;-1.89;93.01
51305;HTU21D;37392;50.964;6.952;2023-03-01T02:30:14;-1.86;93.46
51305;HTU21D;37392;50.964;6.952;2023-03-01T02:32:40;-1.90;93.72
51305;HTU21D;37392;50.964;6.952;2023-03-01T02:35:09;-2.06;94.01
51305;HTU21D;37392;50.964;6.952;2023-03-01T02:37:37;-2.07;94.62
51305;HTU21D;37392;50.964;6.952;2023-03-01T02:40:08;-1.89;94.44
51305;HTU21D;37392;50.964;6.952;2023-03-01T02:42:48;-2.02;93.96
51305;HTU21D;37392;50.964;6.952;2023-03-01T02:45:16;-2.13;94.06
51305;HTU21D;37392;50.964;6.952;2023-03-01T02:47:42;-2.32;94.35
51305;HTU21D;37392;50.964;6.952;2023-03-01T02:53:13;-2.44;95.37
51305;HTU21D;37392;50.964;6.952;2023-03-01T02:55:42;-2.34;95.78
51305;HTU21D;37392;50.964;6.952;2023-03-01T02:58:08;-2.32;95.84
51305;HTU21D;37392;50.964;6.952;2023-03-01T03:00:40;-2.35;95.85
51305;HTU21D;37392;50.964;6.952;2023-03-01T03:03:19;-2.32;95.67
51305;HTU21D;37392;50.964;6.952;2023-03-01T03:05:46;-2.41;95.75
51305;HTU21D;37392;50.964;6.952;2023-03-01T03:08:14;-2.38;96.02
51305;HTU21D;37392;50.964;6.952;2023-03-01T03:10:48;-2.43;96.00
51305;HTU21D;37392;50.964;6.952;2023-03-01T03:13:14;-2.58;95.62
51305;HTU21D;37392;50.964;6.952;2023-03-01T03:15:42;-2.72;96.00
51305;HTU21D;37392;50.964;6.952;2023-03-01T03:18:11;-2.74;96.75
51305;HTU21D;37392;50.964;6.952;2023-03-01T03:20:39;-2.78;96.92
51305;HTU21D;37392;50.964;6.952;2023-03-01T03:23:06;-2.81;97.23
51305;HTU21D;37392;50.964;6.952;2023-03-01T03:25:31;-2.77;97.37
51305;HTU21D;37392;50.964;6.952;2023-03-01T03:27:58;-2.79;97.24
51305;HTU21D;37392;50.964;6.952;2023-03-01T03:30:26;-2.80;97.07
51305;HTU21D;37392;50.964;6.952;2023-03-01T03:32:57;-2.92;97.01
51305;HTU21D;37392;50.964;6.952;2023-03-01T03:35:30;-2.66;97.32
51305;HTU21D;37392;50.964;6.952;2023-03-01T03:37:58;-2.53;97.11
51305;HTU21D;37392;50.964;6.952;2023-03-01T03:40:35;-2.51;96.80
51305;HTU21D;37392;50.964;6.952;2023-03-01T03:43:10;-2.60;96.62
51305;HTU21D;37392;50.964;6.952;2023-03-01T03:45:40;-2.63;96.97
51305;HTU21D;37392;50.964;6.952;2023-03-01T03:48:08;-2.49;96.77
51305;HTU21D;37392;50.964;6.952;2023-03-01T03:50:35;-2.60;96.60
51305;HTU21D;37392;50.964;6.952;2023-03-01T03:53:02;-2.62;96.99
51305;HTU21D;37392;50.964;6.952;2023-03-01T03:55:29;-2.71;96.93
51305;HTU21D;37392;50.964;6.952;2023-03-01T03:57:57;-2.78;97.39
51305;HTU21D;37392;50.964;6.952;2023-03-01T04:00:27;-2.86;97.37
51305;HTU21D;37392;50.964;6.952;2023-03-01T04:02:53;-2.83;97.93
51305;HTU21D;37392;50.964;6.952;2023-03-01T04:05:22;-2.89;97.89
51305;HTU21D;37392;50.964;6.952;2023-03-01T04:07:49;-2.95;97.94
51305;HTU21D;37392;50.964;6.952;2023-03-01T04:10:26;-3.04;98.16
51305;HTU21D;37392;50.964;6.952;2023-03-01T04:12:55;-3.13;98.52
51305;HTU21D;37392;50.964;6.952;2023-03-01T04:15:22;-3.15;98.81
51305;HTU21D;37392;50.964;6.952;2023-03-01T04:17:50;-3.17;99.24
51305;HTU21D;37392;50.964;6.952;2023-03-01T04:20:22;-3.13;99.45
51305;HTU21D;37392;50.964;6.952;2023-03-01T04:23:06;-3.10;99.77
51305;HTU21D;37392;50.964;6.952;2023-03-01T04:25:52;-3.08;99.64
51305;HTU21D;37392;50.964;6.952;2023-03-01T04:30:50;-3.12;100.22
51305;HTU21D;37392;50.964;6.952;2023-03-01T04:33:16;-3.08;100.59
51305;HTU21D;37392;50.964;6.952;2023-03-01T04:35:42;-3.06;100.66
51305;HTU21D;37392;50.964;6.952;2023-03-01T04:38:08;-3.05;100.84
51305;HTU21D;37392;50.964;6.952;2023-03-01T04:40:34;-3.10;101.03
51305;HTU21D;37392;50.964;6.952;2023-03-01T04:43:00;-3.17;101.26
51305;HTU21D;37392;50.964;6.952;2023-03-01T04:45:26;-3.15;101.32
51305;HTU21D;37392;50.964;6.952;2023-03-01T04:47:53;-3.12;101.66
51305;HTU21D;37392;50.964;6.952;2023-03-01T04:50:19;-3.00;101.34
51305;HTU21D;37392;50.964;6.952;2023-03-01T04:52:46;-3.12;100.66
51305;HTU21D;37392;50.964;6.952;2023-03-01T04:55:13;-3.26;101.11
51305;HTU21D;37392;50.964;6.952;2023-03-01T04:57:39;-3.32;101.85
51305;HTU21D;37392;50.964;6.952;2023-03-01T05:00:07;-3.41;102.08
51305;HTU21D;37392;50.964;6.952;2023-03-01T05:03:05;-3.57;102.12
51305;HTU21D;37392;50.964;6.952;2023-03-01T05:05:33;-3.67;102.19
51305;HTU21D;37392;50.964;6.952;2023-03-01T05:08:02;-3.74;102.68
51305;HTU21D;37392;50.964;6.952;2023-03-01T05:10:31;-3.71;103.16
51305;HTU21D;37392;50.964;6.952;2023-03-01T05:12:58;-3.75;103.23
51305;HTU21D;37392;50.964;6.952;2023-03-01T05:15:26;-3.83;103.31
51305;HTU21D;37392;50.964;6.952;2023-03-01T05:17:53;-3.85;103.47
51305;HTU21D;37392;50.964;6.952;2023-03-01T05:20:22;-3.90;103.85
51305;HTU21D;37392;50.964;6.952;2023-03-01T05:22:56;-3.92;104.05
51305;HTU21D;37392;50.964;6.952;2023-03-01T05:25:24;-4.01;103.85
51305;HTU21D;37392;50.964;6.952;2023-03-01T05:27:50;-4.00;104.21
51305;HTU21D;37392;50.964;6.952;2023-03-01T05:30:16;-3.95;104.36
51305;HTU21D;37392;50.964;6.952;2023-03-01T05:32:44;-3.90;104.45
51305;HTU21D;37392;50.964;6.952;2023-03-01T05:35:12;-3.87;104.60
51305;HTU21D;37392;50.964;6.952;2023-03-01T05:37:41;-3.54;105.05
51305;HTU21D;37392;50.964;6.952;2023-03-01T05:40:13;-3.32;102.44
51305;HTU21D;37392;50.964;6.952;2023-03-01T05:42:43;-3.30;101.60
51305;HTU21D;37392;50.964;6.952;2023-03-01T05:45:13;-3.32;101.57
51305;HTU21D;37392;50.964;6.952;2023-03-01T05:47:40;-3.26;101.83
51305;HTU21D;37392;50.964;6.952;2023-03-01T05:50:12;-3.37;101.35
51305;HTU21D;37392;50.964;6.952;2023-03-01T05:52:47;-3.08;102.12
51305;HTU21D;37392;50.964;6.952;2023-03-01T05:55:15;-2.86;101.03
51305;HTU21D;37392;50.964;6.952;2023-03-01T05:57:41;-2.82;99.90
51305;HTU21D;37392;50.964;6.952;2023-03-01T06:00:08;-2.77;99.07
51305;HTU21D;37392;50.964;6.952;2023-03-01T06:02:34;-2.81;98.35
51305;HTU21D;37392;50.964;6.952;2023-03-01T06:05:00;-2.95;98.35
51305;HTU21D;37392;50.964;6.952;2023-03-01T06:07:25;-2.95;98.73
51305;HTU21D;37392;50.964;6.952;2023-03-01T06:09:51;-3.02;99.10
51305;HTU21D;37392;50.964;6.952;2023-03-01T06:12:17;-3.05;99.07
51305;HTU21D;37392;50.964;6.952;2023-03-01T06:14:42;-3.05;99.13
51305;HTU21D;37392;50.964;6.952;2023-03-01T06:17:08;-3.08;99.51
51305;HTU21D;37392;50.964;6.952;2023-03-01T06:19:33;-3.13;99.45
51305;HTU21D;37392;50.964;6.952;2023-03-01T06:21:59;-3.23;99.53
51305;HTU21D;37392;50.964;6.952;2023-03-01T06:24:24;-3.25;100.00
51305;HTU21D;37392;50.964;6.952;2023-03-01T06:26:50;-3.28;99.89
51305;HTU21D;37392;50.964;6.952;2023-03-01T06:29:18;-3.31;100.19
51305;HTU21D;37392;50.964;6.952;2023-03-01T06:31:43;-3.28;100.61
51305;HTU21D;37392;50.964;6.952;2023-03-01T06:34:11;-3.30;100.46
51305;HTU21D;37392;50.964;6.952;2023-03-01T06:36:39;-3.27;100.70
51305;HTU21D;37392;50.964;6.952;2023-03-01T06:39:04;-3.24;100.64
51305;HTU21D;37392;50.964;6.952;2023-03-01T06:41:31;-3.21;100.75
51305;HTU21D;37392;50.964;6.952;2023-03-01T06:43:57;-3.18;100.64
51305;HTU21D;37392;50.964;6.952;2023-03-01T06:46:24;-2.88;101.72
51305;HTU21D;37392;50.964;6.952;2023-03-01T06:48:49;-2.35;102.63
51305;HTU21D;37392;50.964;6.952;2023-03-01T06:51:15;-1.93;102.01
51305;HTU21D;37392;50.964;6.952;2023-03-01T06:53:40;-1.57;100.43
51305;HTU21D;37392;50.964;6.952;2023-03-01T06:56:06;-1.46;98.74
51305;HTU21D;37392;50.964;6.952;2023-03-01T06:58:32;-1.43;97.63
51305;HTU21D;37392;50.964;6.952;2023-03-01T07:00:57;-1.17;95.94
51305;HTU21D;37392;50.964;6.952;2023-03-01T07:03:23;-0.67;95.30
51305;HTU21D;37392;50.964;6.952;2023-03-01T07:05:50;0.16;94.27
51305;HTU21D;37392;50.964;6.952;2023-03-01T07:08:17;1.06;92.69
51305;HTU21D;37392;50.964;6.952;2023-03-01T07:10:43;1.75;87.62
51305;HTU21D;37392;50.964;6.952;2023-03-01T07:13:09;2.47;84.74
51305;HTU21D;37392;50.964;6.952;2023-03-01T07:15:35;2.73;82.21
51305;HTU21D;37392;50.964;6.952;2023-03-01T07:18:01;2.95;81.02
51305;HTU21D;37392;50.964;6.952;2023-03-01T07:20:27;3.25;80.68
51305;HTU21D;37392;50.964;6.952;2023-03-01T07:22:53;3.57;80.07
51305;HTU21D;37392;50.964;6.952;2023-03-01T07:25:20;4.42;76.93
51305;HTU21D;37392;50.964;6.952;2023-03-01T07:27:50;4.67;73.32
51305;HTU21D;37392;50.964;6.952;2023-03-01T07:30:17;5.02;71.98
51305;HTU21D;37392;50.964;6.952;2023-03-01T07:32:43;5.54;71.12
51305;HTU21D;37392;50.964;6.952;2023-03-01T07:35:08;5.83;68.73
51305;HTU21D;37392;50.964;6.952;2023-03-01T07:37:34;5.66;68.54
51305;HTU21D;37392;50.964;6.952;2023-03-01T07:40:00;5.97;67.16
51305;HTU21D;37392;50.964;6.952;2023-03-01T07:42:25;6.33;65.23
51305;HTU21D;37392;50.964;6.952;2023-03-01T07:44:51;6.45;64.28
51305;HTU21D;37392;50.964;6.952;2023-03-01T07:47:16;6.80;63.05
51305;HTU21D;37392;50.964;6.952;2023-03-01T07:49:42;7.61;61.53
51305;HTU21D;37392;50.964;6.952;2023-03-01T07:52:12;7.56;59.73
51305;HTU21D;37392;50.964;6.952;2023-03-01T07:54:39;7.35;59.79
51305;HTU21D;37392;50.964;6.952;2023-03-01T07:57:08;7.46;60.18
51305;HTU21D;37392;50.964;6.952;2023-03-01T07:59:33;7.35;59.28
51305;HTU21D;37392;50.964;6.952;2023-03-01T08:01:59;7.07;58.86
51305;HTU21D;37392;50.964;6.952;2023-03-01T08:04:24;7.60;59.62
51305;HTU21D;37392;50.964;6.952;2023-03-01T08:06:52;7.53;58.54
51305;HTU21D;37392;50.964;6.952;2023-03-01T08:09:18;7.77;58.29
51305;HTU21D;37392;50.964;6.952;2023-03-01T08:11:44;8.05;57.58
51305;HTU21D;37392;50.964;6.952;2023-03-01T08:14:09;8.60;56.64
51305;HTU21D;37392;50.964;6.952;2023-03-01T08:16:36;8.33;55.74
51305;HTU21D;37392;50.964;6.952;2023-03-01T08:19:09;8.38;56.20
51305;HTU21D;37392;50.964;6.952;2023-03-01T08:21:39;8.16;56.15
51305;HTU21D;37392;50.964;6.952;2023-03-01T08:24:05;8.12;56.00
51305;HTU21D;37392;50.964;6.952;2023-03-01T08:26:32;8.28;55.65
51305;HTU21D;37392;50.964;6.952;2023-03-01T08:28:59;8.38;55.90
51305;HTU21D;37392;50.964;6.952;2023-03-01T08:31:37;8.50;55.70
51305;HTU21D;37392;50.964;6.952;2023-03-01T08:34:11;9.21;54.71
51305;HTU21D;37392;50.964;6.952;2023-03-01T08:36:40;9.22;53.74
51305;HTU21D;37392;50.964;6.952;2023-03-01T08:39:10;9.75;53.16
51305;HTU21D;37392;50.964;6.952;2023-03-01T08:41:37;10.16;52.14
51305;HTU21D;37392;50.964;6.952;2023-03-01T08:44:04;9.85;50.69
51305;HTU21D;37392;50.964;6.952;2023-03-01T08:46:33;9.38;52.20
51305;HTU21D;37392;50.964;6.952;2023-03-01T08:49:04;9.97;52.34
51305;HTU21D;37392;50.964;6.952;2023-03-01T08:51:30;9.83;51.40
51305;HTU21D;37392;50.964;6.952;2023-03-01T08:53:57;9.96;51.57
51305;HTU21D;37392;50.964;6.952;2023-03-01T08:56:23;10.19;51.04
51305;HTU21D;37392;50.964;6.952;2023-03-01T08:58:49;9.98;50.93
51305;HTU21D;37392;50.964;6.952;2023-03-01T09:01:17;10.20;50.74
51305;HTU21D;37392;50.964;6.952;2023-03-01T09:03:44;10.10;50.83
51305;HTU21D;37392;50.964;6.952;2023-03-01T09:06:11;10.52;50.37
51305;HTU21D;37392;50.964;6.952;2023-03-01T09:08:43;11.00;49.28
51305;HTU21D;37392;50.964;6.952;2023-03-01T09:11:11;10.97;48.15
51305;HTU21D;37392;50.964;6.952;2023-03-01T09:13:40;10.67;48.45
51305;HTU21D;37392;50.964;6.952;2023-03-01T09:16:07;10.00;49.11
51305;HTU21D;37392;50.964;6.952;2023-03-01T09:18:34;9.92;49.57
51305;HTU21D;37392;50.964;6.952;2023-03-01T09:21:08;10.40;49.38
51305;HTU21D;37392;50.964;6.952;2023-03-01T09:23:38;10.50;48.42
51305;HTU21D;37392;50.964;6.952;2023-03-01T09:26:06;10.67;48.47
51305;HTU21D;37392;50.964;6.952;2023-03-01T09:28:33;11.13;47.92
51305;HTU21D;37392;50.964;6.952;2023-03-01T09:30:59;10.88;46.81
51305;HTU21D;37392;50.964;6.952;2023-03-01T09:33:27;10.74;47.29
51305;HTU21D;37392;50.964;6.952;2023-03-01T09:36:05;10.70;47.36
51305;HTU21D;37392;50.964;6.952;2023-03-01T09:38:33;10.86;47.22
51305;HTU21D;37392;50.964;6.952;2023-03-01T09:41:00;10.77;47.12
51305;HTU21D;37392;50.964;6.952;2023-03-01T09:43:47;11.36;46.94
51305;HTU21D;37392;50.964;6.952;2023-03-01T09:46:20;11.82;46.03
51305;HTU21D;37392;50.964;6.952;2023-03-01T09:48:55;11.74;45.65
51305;HTU21D;37392;50.964;6.952;2023-03-01T09:51:34;11.66;45.29
51305;HTU21D;37392;50.964;6.952;2023-03-01T09:54:05;11.54;45.71
51305;HTU21D;37392;50.964;6.952;2023-03-01T09:56:35;11.63;45.38
51305;HTU21D;37392;50.964;6.952;2023-03-01T10:10:37;11.84;44.44
51305;HTU21D;37392;50.964;6.952;2023-03-01T10:15:58;12.21;44.40
51305;HTU21D;37392;50.964;6.952;2023-03-01T10:18:37;12.92;43.35
51305;HTU21D;37392;50.964;6.952;2023-03-01T10:23:39;13.43;41.87
51305;HTU21D;37392;50.964;6.952;2023-03-01T10:29:11;12.64;42.74
51305;HTU21D;37392;50.964;6.952;2023-03-01T10:31:44;12.50;42.76
51305;HTU21D;37392;50.964;6.952;2023-03-01T10:34:21;12.85;42.87
51305;HTU21D;37392;50.964;6.952;2023-03-01T10:36:51;12.74;42.00
51305;HTU21D;37392;50.964;6.952;2023-03-01T10:39:20;12.65;42.19
51305;HTU21D;37392;50.964;6.952;2023-03-01T10:44:43;13.34;41.82
51305;HTU21D;37392;50.964;6.952;2023-03-01T10:47:24;14.01;40.88
51305;HTU21D;37392;50.964;6.952;2023-03-01T10:50:00;13.58;40.56
51305;HTU21D;37392;50.964;6.952;2023-03-01T10:52:34;13.48;40.33
51305;HTU21D;37392;50.964;6.952;2023-03-01T10:58:18;13.43;40.97
51305;HTU21D;37392;50.964;6.952;2023-03-01T11:00:49;12.91;41.55
51305;HTU21D;37392;50.964;6.952;2023-03-01T11:03:21;12.77;41.68
51305;HTU21D;37392;50.964;6.952;2023-03-01T11:05:58;12.11;42.27
51305;HTU21D;37392;50.964;6.952;2023-03-01T11:08:35;11.33;43.99
51305;HTU21D;37392;50.964;6.952;2023-03-01T11:13:59;10.24;46.74
51305;HTU21D;37392;50.964;6.952;2023-03-01T11:16:39;9.52;47.87
51305;HTU21D;37392;50.964;6.952;2023-03-01T11:19:16;8.93;49.23
51305;HTU21D;37392;50.964;6.952;2023-03-01T11:24:36;8.71;51.20
51305;HTU21D;37392;50.964;6.952;2023-03-01T11:27:14;8.71;51.37
51305;HTU21D;37392;50.964;6.952;2023-03-01T11:30:02;8.39;51.46
51305;HTU21D;37392;50.964;6.952;2023-03-01T11:32:42;8.21;52.57
51305;HTU21D;37392;50.964;6.952;2023-03-01T11:35:25;8.08;53.07
51305;HTU21D;37392;50.964;6.952;2023-03-01T11:40:57;8.22;53.45
51305;HTU21D;37392;50.964;6.952;2023-03-01T11:55:01;7.55;54.33
51305;HTU21D;37392;50.964;6.952;2023-03-01T11:58:08;7.59;54.75
51305;HTU21D;37392;50.964;6.952;2023-03-01T12:06:52;7.59;54.53
51305;HTU21D;37392;50.964;6.952;2023-03-01T12:16:13;7.44;55.65
51305;HTU21D;37392;50.964;6.952;2023-03-01T12:27:50;7.38;55.47
51305;HTU21D;37392;50.964;6.952;2023-03-01T12:39:52;7.56;55.04
51305;HTU21D;37392;50.964;6.952;2023-03-01T12:42:54;7.59;54.90
51305;HTU21D;37392;50.964;6.952;2023-03-01T12:48:50;7.71;54.64
51305;HTU21D;37392;50.964;6.952;2023-03-01T12:51:32;7.71;55.10
51305;HTU21D;37392;50.964;6.952;2023-03-01T12:54:07;7.72;54.63
51305;HTU21D;37392;50.964;6.952;2023-03-01T12:56:41;7.63;54.42
51305;HTU21D;37392;50.964;6.952;2023-03-01T12:59:19;7.57;54.36
51305;HTU21D;37392;50.964;6.952;2023-03-01T13:02:16;7.65;54.62
51305;HTU21D;37392;50.964;6.952;2023-03-01T13:11:01;7.74;55.23
51305;HTU21D;37392;50.964;6.952;2023-03-01T13:13:29;7.71;55.15
51305;HTU21D;37392;50.964;6.952;2023-03-01T13:15:55;7.68;54.87
51305;HTU21D;37392;50.964;6.952;2023-03-01T13:20:53;7.76;54.76
51305;HTU21D;37392;50.964;6.952;2023-03-01T13:26:16;7.71;54.04
51305;HTU21D;37392;50.964;6.952;2023-03-01T13:33:44;7.79;54.17
51305;HTU21D;37392;50.964;6.952;2023-03-01T13:36:45;7.90;54.17
51305;HTU21D;37392;50.964;6.952;2023-03-01T13:39:30;7.91;53.97
51305;HTU21D;37392;50.964;6.952;2023-03-01T13:41:58;7.99;53.75
51305;HTU21D;37392;50.964;6.952;2023-03-01T13:44:36;7.92;53.45
51305;HTU21D;37392;50.964;6.952;2023-03-01T13:47:17;7.87;52.94
51305;HTU21D;37392;50.964;6.952;2023-03-01T13:49:57;7.90;52.84
51305;HTU21D;37392;50.964;6.952;2023-03-01T13:52:32;7.94;53.17
51305;HTU21D;37392;50.964;6.952;2023-03-01T13:58:13;7.86;53.13
51305;HTU21D;37392;50.964;6.952;2023-03-01T14:00:41;7.92;53.04
51305;HTU21D;37392;50.964;6.952;2023-03-01T14:08:32;7.83;52.87
51305;HTU21D;37392;50.964;6.952;2023-03-01T14:19:23;7.98;52.06
51305;HTU21D;37392;50.964;6.952;2023-03-01T14:22:16;7.96;51.88
51305;HTU21D;37392;50.964;6.952;2023-03-01T14:24:59;7.93;51.97
51305;HTU21D;37392;50.964;6.952;2023-03-01T14:27:35;7.91;52.70
51305;HTU21D;37392;50.964;6.952;2023-03-01T14:30:23;7.93;54.41
51305;HTU21D;37392;50.964;6.952;2023-03-01T14:33:01;7.97;55.32
51305;HTU21D;37392;50.964;6.952;2023-03-01T14:35:31;7.94;55.71
51305;HTU21D;37392;50.964;6.952;2023-03-01T14:38:02;7.88;56.20
51305;HTU21D;37392;50.964;6.952;2023-03-01T14:40:34;7.92;56.45
51305;HTU21D;37392;50.964;6.952;2023-03-01T14:43:08;7.98;56.54
51305;HTU21D;37392;50.964;6.952;2023-03-01T14:45:35;7.91;56.90
51305;HTU21D;37392;50.964;6.952;2023-03-01T14:48:03;7.86;57.39
51305;HTU21D;37392;50.964;6.952;2023-03-01T14:50:34;7.77;57.84
51305;HTU21D;37392;50.964;6.952;2023-03-01T14:53:06;7.67;58.00
51305;HTU21D;37392;50.964;6.952;2023-03-01T14:55:36;7.59;58.50
51305;HTU21D;37392;50.964;6.952;2023-03-01T14:58:15;7.53;58.73
51305;HTU21D;37392;50.964;6.952;2023-03-01T15:00:58;7.54;59.19
51305;HTU21D;37392;50.964;6.952;2023-03-01T15:03:38;7.49;59.73
51305;HTU21D;37392;50.964;6.952;2023-03-01T15:06:21;7.39;60.25
51305;HTU21D;37392;50.964;6.952;2023-03-01T15:08:51;7.44;60.73
51305;HTU21D;37392;50.964;6.952;2023-03-01T15:13:52;7.40;60.50
51305;HTU21D;37392;50.964;6.952;2023-03-01T15:16:32;7.32;60.97
51305;HTU21D;37392;50.964;6.952;2023-03-01T15:19:05;7.25;61.19
51305;HTU21D;37392;50.964;6.952;2023-03-01T15:21:38;7.20;61.51
51305;HTU21D;37392;50.964;6.952;2023-03-01T15:26:49;7.14;61.28
51305;HTU21D;37392;50.964;6.952;2023-03-01T15:29:27;7.18;61.20
51305;HTU21D;37392;50.964;6.952;2023-03-01T15:32:03;7.22;60.82
51305;HTU21D;37392;50.964;6.952;2023-03-01T15:36:59;7.10;60.87
51305;HTU21D;37392;50.964;6.952;2023-03-01T15:42:45;7.12;60.83
51305;HTU21D;37392;50.964;6.952;2023-03-01T15:47:47;7.10;60.64
51305;HTU21D;37392;50.964;6.952;2023-03-01T15:50:26;7.00;60.83
51305;HTU21D;37392;50.964;6.952;2023-03-01T15:52:54;6.97;60.74
51305;HTU21D;37392;50.964;6.952;2023-03-01T15:55:28;6.98;60.79
51305;HTU21D;37392;50.964;6.952;2023-03-01T15:58:00;6.94;60.62
51305;HTU21D;37392;50.964;6.952;2023-03-01T16:00:29;6.96;60.69
51305;HTU21D;37392;50.964;6.952;2023-03-01T16:02:55;6.82;60.88
51305;HTU21D;37392;50.964;6.952;2023-03-01T16:05:27;6.97;60.97
51305;HTU21D;37392;50.964;6.952;2023-03-01T16:07:55;6.90;60.65
51305;HTU21D;37392;50.964;6.952;2023-03-01T16:10:22;6.86;60.40
51305;HTU21D;37392;50.964;6.952;2023-03-01T16:12:49;6.75;60.86
51305;HTU21D;37392;50.964;6.952;2023-03-01T16:15:22;6.67;61.36
51305;HTU21D;37392;50.964;6.952;2023-03-01T16:17:50;6.55;61.92
51305;HTU21D;37392;50.964;6.952;2023-03-01T16:20:16;6.61;62.10
51305;HTU21D;37392;50.964;6.952;2023-03-01T16:22:43;6.56;62.08
51305;HTU21D;37392;50.964;6.952;2023-03-01T16:25:20;6.50;62.12
51305;HTU21D;37392;50.964;6.952;2023-03-01T16:27:47;6.48;62.31
51305;HTU21D;37392;50.964;6.952;2023-03-01T16:30:15;6.43;62.33
51305;HTU21D;37392;50.964;6.952;2023-03-01T16:32:44;6.41;62.15
51305;HTU21D;37392;50.964;6.952;2023-03-01T16:35:12;6.49;61.93
51305;HTU21D;37392;50.964;6.952;2023-03-01T16:37:39;6.39;61.82
51305;HTU21D;37392;50.964;6.952;2023-03-01T16:40:07;6.38;62.05
51305;HTU21D;37392;50.964;6.952;2023-03-01T16:42:41;6.28;62.03
51305;HTU21D;37392;50.964;6.952;2023-03-01T16:45:08;6.24;62.14
51305;HTU21D;37392;50.964;6.952;2023-03-01T16:47:34;6.16;62.09
51305;HTU21D;37392;50.964;6.952;2023-03-01T16:50:00;6.11;62.13
51305;HTU21D;37392;50.964;6.952;2023-03-01T16:52:26;5.98;62.44
51305;HTU21D;37392;50.964;6.952;2023-03-01T16:54:51;5.98;62.69
51305;HTU21D;37392;50.964;6.952;2023-03-01T16:57:17;5.92;62.78
51305;HTU21D;37392;50.964;6.952;2023-03-01T16:59:43;5.83;63.16
51305;HTU21D;37392;50.964;6.952;2023-03-01T17:02:11;5.53;63.71
51305;HTU21D;37392;50.964;6.952;2023-03-01T17:04:40;5.63;63.62
51305;HTU21D;37392;50.964;6.952;2023-03-01T17:07:06;5.59;63.69
51305;HTU21D;37392;50.964;6.952;2023-03-01T17:09:36;5.57;63.72
51305;HTU21D;37392;50.964;6.952;2023-03-01T17:12:03;5.55;63.91
51305;HTU21D;37392;50.964;6.952;2023-03-01T17:19:33;5.41;63.89
51305;HTU21D;37392;50.964;6.952;2023-03-01T17:22:01;5.36;64.00
51305;HTU21D;37392;50.964;6.952;2023-03-01T17:24:27;5.28;64.01
51305;HTU21D;37392;50.964;6.952;2023-03-01T17:26:57;5.33;64.06
51305;HTU21D;37392;50.964;6.952;2023-03-01T17:29:23;5.18;64.42
51305;HTU21D;37392;50.964;6.952;2023-03-01T17:31:50;5.19;64.73
51305;HTU21D;37392;50.964;6.952;2023-03-01T17:34:16;5.09;64.75
51305;HTU21D;37392;50.964;6.952;2023-03-01T17:36:42;5.07;64.66
51305;HTU21D;37392;50.964;6.952;2023-03-01T17:39:15;4.90;65.14
51305;HTU21D;37392;50.964;6.952;2023-03-01T17:41:41;4.79;65.65
51305;HTU21D;37392;50.964;6.952;2023-03-01T17:44:07;4.78;65.75
51305;HTU21D;37392;50.964;6.952;2023-03-01T17:46:33;4.84;65.75
51305;HTU21D;37392;50.964;6.952;2023-03-01T17:48:59;4.90;65.53
51305;HTU21D;37392;50.964;6.952;2023-03-01T17:51:24;4.86;65.50
51305;HTU21D;37392;50.964;6.952;2023-03-01T17:53:50;4.80;65.69
51305;HTU21D;37392;50.964;6.952;2023-03-01T17:56:15;4.64;66.08
51305;HTU21D;37392;50.964;6.952;2023-03-01T17:58:41;4.58;66.52